sensor_id;sensor_type;location;lat;lon;timestamp;P1;durP1;ratioP1;P2;durP2;ratioP2
22160;SDS011;49035;48.812;11.762;2023-06-14T00:01:31;6.70;;;3.70;;
22160;SDS011;49035;48.812;11.762;2023-06-14T00:03:59;5.80;;;3.90;;
22160;SDS011;49035;48.812;11.762;2023-06-14T00:06:26;7.03;;;3.30;;
22160;SDS011;49035;48.812;11.762;2023-06-14T00:08:53;4.30;;;3.33;;
22160;SDS011;49035;48.812;11.762;2023-06-14T00:11:19;5.27;;;3.73;;
22160;SDS011;49035;48.812;11.762;2023-06-14T00:13:45;6.00;;;3.53;;
22160;SDS011;49035;48.812;11.762;2023-06-14T00:16:11;6.20;;;4.03;;
22160;SDS011;49035;48.812;11.762;2023-06-14T00:18:37;4.23;;;3.50;;
22160;SDS011;49035;48.812;11.762;2023-06-14T00:21:03;6.87;;;4.10;;
22160;SDS011;49035;48.812;11.762;2023-06-14T00:23:29;5.93;;;3.93;;
22160;SDS011;49035;48.812;11.762;2023-06-14T00:25:55;5.50;;;4.00;;
22160;SDS011;49035;48.812;11.762;2023-06-14T00:28:21;5.03;;;4.17;;
22160;SDS011;49035;48.812;11.762;2023-06-14T00:30:46;5.13;;;4.10;;
22160;SDS011;49035;48.812;11.762;2023-06-14T00:33:12;5.97;;;3.87;;
22160;SDS011;49035;48.812;11.762;2023-06-14T00:35:38;6.40;;;3.97;;
22160;SDS011;49035;48.812;11.762;2023-06-14T00:38:03;8.33;;;3.90;;
22160;SDS011;49035;48.812;11.762;2023-06-14T00:40:29;5.53;;;3.97;;
22160;SDS011;49035;48.812;11.762;2023-06-14T00:42:55;6.93;;;3.93;;
22160;SDS011;49035;48.812;11.762;2023-06-14T00:45:20;5.83;;;4.37;;
22160;SDS011;49035;48.812;11.762;2023-06-14T00:47:46;6.63;;;4.60;;
22160;SDS011;49035;48.812;11.762;2023-06-14T00:50:13;6.40;;;4.40;;
22160;SDS011;49035;48.812;11.762;2023-06-14T00:52:39;6.03;;;4.13;;
22160;SDS011;49035;48.812;11.762;2023-06-14T00:55:05;6.07;;;3.83;;
22160;SDS011;49035;48.812;11.762;2023-06-14T00:57:31;6.80;;;4.80;;
22160;SDS011;49035;48.812;11.762;2023-06-14T00:59:58;6.87;;;4.27;;
22160;SDS011;49035;48.812;11.762;2023-06-14T01:02:24;5.73;;;4.40;;
22160;SDS011;49035;48.812;11.762;2023-06-14T01:04:49;7.00;;;4.47;;
22160;SDS011;49035;48.812;11.762;2023-06-14T01:07:33;6.43;;;4.13;;
22160;SDS011;49035;48.812;11.762;2023-06-14T01:10:20;6.30;;;4.07;;
22160;SDS011;49035;48.812;11.762;2023-06-14T01:15:18;6.67;;;4.40;;
22160;SDS011;49035;48.812;11.762;2023-06-14T01:17:45;6.03;;;4.43;;
22160;SDS011;49035;48.812;11.762;2023-06-14T01:20:14;6.17;;;4.60;;
22160;SDS011;49035;48.812;11.762;2023-06-14T01:22:47;6.47;;;5.07;;
22160;SDS011;49035;48.812;11.762;2023-06-14T01:25:19;7.10;;;4.30;;
22160;SDS011;49035;48.812;11.762;2023-06-14T01:27:50;5.70;;;4.33;;
22160;SDS011;49035;48.812;11.762;2023-06-14T01:30:29;6.73;;;3.93;;
22160;SDS011;49035;48.812;11.762;2023-06-14T01:32:58;5.77;;;3.90;;
22160;SDS011;49035;48.812;11.762;2023-06-14T01:35:24;6.40;;;4.43;;
22160;SDS011;49035;48.812;11.762;2023-06-14T01:37:50;4.97;;;4.27;;
22160;SDS011;49035;48.812;11.762;2023-06-14T01:40:18;5.33;;;4.20;;
22160;SDS011;49035;48.812;11.762;2023-06-14T01:42:46;6.60;;;4.40;;
22160;SDS011;49035;48.812;11.762;2023-06-14T01:45:14;5.57;;;4.50;;
22160;SDS011;49035;48.812;11.762;2023-06-14T01:47:40;10.30;;;4.80;;
22160;SDS011;49035;48.812;11.762;2023-06-14T01:50:06;6.97;;;4.60;;
22160;SDS011;49035;48.812;11.762;2023-06-14T01:52:32;6.53;;;4.63;;
22160;SDS011;49035;48.812;11.762;2023-06-14T01:54:58;5.90;;;4.33;;
22160;SDS011;49035;48.812;11.762;2023-06-14T01:57:27;6.30;;;4.47;;
22160;SDS011;49035;48.812;11.762;2023-06-14T01:59:53;6.00;;;4.10;;
22160;SDS011;49035;48.812;11.762;2023-06-14T02:02:18;8.57;;;4.67;;
22160;SDS011;49035;48.812;11.762;2023-06-14T02:04:44;5.17;;;3.90;;
22160;SDS011;49035;48.812;11.762;2023-06-14T02:07:12;10.17;;;5.00;;
22160;SDS011;49035;48.812;11.762;2023-06-14T02:09:38;6.00;;;4.77;;
22160;SDS011;49035;48.812;11.762;2023-06-14T02:12:03;6.33;;;5.10;;
22160;SDS011;49035;48.812;11.762;2023-06-14T02:14:29;10.93;;;5.13;;
22160;SDS011;49035;48.812;11.762;2023-06-14T02:16:55;6.23;;;4.90;;
22160;SDS011;49035;48.812;11.762;2023-06-14T02:19:21;6.50;;;4.30;;
22160;SDS011;49035;48.812;11.762;2023-06-14T02:21:47;7.77;;;4.63;;
22160;SDS011;49035;48.812;11.762;2023-06-14T02:24:12;6.13;;;4.57;;
22160;SDS011;49035;48.812;11.762;2023-06-14T02:26:38;7.40;;;5.33;;
22160;SDS011;49035;48.812;11.762;2023-06-14T02:29:05;6.93;;;4.90;;
22160;SDS011;49035;48.812;11.762;2023-06-14T02:31:31;4.93;;;4.40;;
22160;SDS011;49035;48.812;11.762;2023-06-14T02:33:57;8.00;;;5.23;;
22160;SDS011;49035;48.812;11.762;2023-06-14T02:36:23;6.00;;;4.73;;
22160;SDS011;49035;48.812;11.762;2023-06-14T02:38:49;7.07;;;5.03;;
22160;SDS011;49035;48.812;11.762;2023-06-14T02:41:15;7.67;;;5.70;;
22160;SDS011;49035;48.812;11.762;2023-06-14T02:43:40;7.13;;;5.07;;
22160;SDS011;49035;48.812;11.762;2023-06-14T02:46:06;6.17;;;4.73;;
22160;SDS011;49035;48.812;11.762;2023-06-14T02:48:32;7.10;;;5.00;;
22160;SDS011;49035;48.812;11.762;2023-06-14T02:50:58;8.47;;;5.27;;
22160;SDS011;49035;48.812;11.762;2023-06-14T02:53:23;7.90;;;5.60;;
22160;SDS011;49035;48.812;11.762;2023-06-14T02:55:49;6.97;;;5.03;;
22160;SDS011;49035;48.812;11.762;2023-06-14T02:58:14;12.27;;;6.00;;
22160;SDS011;49035;48.812;11.762;2023-06-14T03:00:41;8.20;;;5.47;;
22160;SDS011;49035;48.812;11.762;2023-06-14T03:03:07;9.83;;;5.50;;
22160;SDS011;49035;48.812;11.762;2023-06-14T03:05:43;6.93;;;5.10;;
22160;SDS011;49035;48.812;11.762;2023-06-14T03:08:14;6.23;;;5.33;;
22160;SDS011;49035;48.812;11.762;2023-06-14T03:10:42;7.97;;;5.57;;
22160;SDS011;49035;48.812;11.762;2023-06-14T03:13:08;8.23;;;5.43;;
22160;SDS011;49035;48.812;11.762;2023-06-14T03:15:35;8.77;;;5.83;;
22160;SDS011;49035;48.812;11.762;2023-06-14T03:18:01;8.57;;;5.70;;
22160;SDS011;49035;48.812;11.762;2023-06-14T03:20:28;7.23;;;5.27;;
22160;SDS011;49035;48.812;11.762;2023-06-14T03:22:58;8.43;;;6.17;;
22160;SDS011;49035;48.812;11.762;2023-06-14T03:25:25;9.17;;;6.77;;
22160;SDS011;49035;48.812;11.762;2023-06-14T03:27:51;9.87;;;5.87;;
22160;SDS011;49035;48.812;11.762;2023-06-14T03:30:16;8.87;;;5.73;;
22160;SDS011;49035;48.812;11.762;2023-06-14T03:32:42;11.57;;;6.03;;
22160;SDS011;49035;48.812;11.762;2023-06-14T03:35:08;8.60;;;6.50;;
22160;SDS011;49035;48.812;11.762;2023-06-14T03:37:35;7.27;;;6.13;;
22160;SDS011;49035;48.812;11.762;2023-06-14T03:40:00;9.80;;;6.27;;
22160;SDS011;49035;48.812;11.762;2023-06-14T03:42:26;11.30;;;6.13;;
22160;SDS011;49035;48.812;11.762;2023-06-14T03:44:51;8.93;;;6.47;;
22160;SDS011;49035;48.812;11.762;2023-06-14T03:47:17;8.83;;;6.17;;
22160;SDS011;49035;48.812;11.762;2023-06-14T03:49:42;9.13;;;6.70;;
22160;SDS011;49035;48.812;11.762;2023-06-14T03:52:08;10.33;;;6.90;;
22160;SDS011;49035;48.812;11.762;2023-06-14T03:54:33;9.83;;;7.40;;
22160;SDS011;49035;48.812;11.762;2023-06-14T03:56:59;11.00;;;7.00;;
22160;SDS011;49035;48.812;11.762;2023-06-14T03:59:25;12.27;;;7.00;;
22160;SDS011;49035;48.812;11.762;2023-06-14T04:01:51;10.20;;;6.83;;
22160;SDS011;49035;48.812;11.762;2023-06-14T04:04:18;11.97;;;7.03;;
22160;SDS011;49035;48.812;11.762;2023-06-14T04:06:44;11.50;;;6.47;;
22160;SDS011;49035;48.812;11.762;2023-06-14T04:09:13;13.33;;;7.90;;
22160;SDS011;49035;48.812;11.762;2023-06-14T04:11:38;12.20;;;7.43;;
22160;SDS011;49035;48.812;11.762;2023-06-14T04:14:05;10.43;;;7.40;;
22160;SDS011;49035;48.812;11.762;2023-06-14T04:16:30;8.03;;;6.13;;
22160;SDS011;49035;48.812;11.762;2023-06-14T04:18:57;8.17;;;5.80;;
22160;SDS011;49035;48.812;11.762;2023-06-14T04:21:23;5.10;;;4.60;;
22160;SDS011;49035;48.812;11.762;2023-06-14T04:23:48;4.80;;;4.07;;
22160;SDS011;49035;48.812;11.762;2023-06-14T04:26:17;5.97;;;4.13;;
22160;SDS011;49035;48.812;11.762;2023-06-14T04:28:45;5.00;;;3.80;;
22160;SDS011;49035;48.812;11.762;2023-06-14T04:31:11;5.97;;;3.95;;
22160;SDS011;49035;48.812;11.762;2023-06-14T04:33:37;4.18;;;3.70;;
22160;SDS011;49035;48.812;11.762;2023-06-14T04:36:11;7.40;;;3.97;;
22160;SDS011;49035;48.812;11.762;2023-06-14T04:38:38;6.53;;;4.05;;
22160;SDS011;49035;48.812;11.762;2023-06-14T04:41:04;5.00;;;3.80;;
22160;SDS011;49035;48.812;11.762;2023-06-14T04:43:31;4.60;;;3.97;;
22160;SDS011;49035;48.812;11.762;2023-06-14T04:46:01;8.02;;;3.80;;
22160;SDS011;49035;48.812;11.762;2023-06-14T04:48:28;4.30;;;3.85;;
22160;SDS011;49035;48.812;11.762;2023-06-14T04:50:53;4.78;;;3.63;;
22160;SDS011;49035;48.812;11.762;2023-06-14T04:53:19;4.13;;;3.72;;
22160;SDS011;49035;48.812;11.762;2023-06-14T04:55:47;4.25;;;3.65;;
22160;SDS011;49035;48.812;11.762;2023-06-14T04:58:13;10.18;;;3.85;;
22160;SDS011;49035;48.812;11.762;2023-06-14T05:00:39;3.60;;;3.17;;
22160;SDS011;49035;48.812;11.762;2023-06-14T05:03:04;6.10;;;3.40;;
22160;SDS011;49035;48.812;11.762;2023-06-14T05:05:31;6.20;;;3.60;;
22160;SDS011;49035;48.812;11.762;2023-06-14T05:07:57;8.43;;;3.65;;
22160;SDS011;49035;48.812;11.762;2023-06-14T05:10:22;5.97;;;4.03;;
22160;SDS011;49035;48.812;11.762;2023-06-14T05:12:49;4.97;;;3.88;;
22160;SDS011;49035;48.812;11.762;2023-06-14T05:15:15;7.57;;;3.67;;
22160;SDS011;49035;48.812;11.762;2023-06-14T05:17:41;10.95;;;3.80;;
22160;SDS011;49035;48.812;11.762;2023-06-14T05:20:07;7.78;;;4.13;;
22160;SDS011;49035;48.812;11.762;2023-06-14T05:22:35;4.22;;;3.30;;
22160;SDS011;49035;48.812;11.762;2023-06-14T05:25:01;8.40;;;3.65;;
22160;SDS011;49035;48.812;11.762;2023-06-14T05:27:26;7.95;;;4.00;;
22160;SDS011;49035;48.812;11.762;2023-06-14T05:29:52;10.57;;;3.85;;
22160;SDS011;49035;48.812;11.762;2023-06-14T05:32:20;4.95;;;3.13;;
22160;SDS011;49035;48.812;11.762;2023-06-14T05:34:46;5.55;;;3.53;;
22160;SDS011;49035;48.812;11.762;2023-06-14T05:37:11;7.43;;;3.78;;
22160;SDS011;49035;48.812;11.762;2023-06-14T05:39:38;4.57;;;3.30;;
22160;SDS011;49035;48.812;11.762;2023-06-14T05:42:03;4.25;;;3.28;;
22160;SDS011;49035;48.812;11.762;2023-06-14T05:44:29;8.68;;;3.22;;
22160;SDS011;49035;48.812;11.762;2023-06-14T05:46:55;4.63;;;3.10;;
22160;SDS011;49035;48.812;11.762;2023-06-14T05:49:20;9.02;;;3.30;;
22160;SDS011;49035;48.812;11.762;2023-06-14T05:51:46;3.97;;;3.08;;
22160;SDS011;49035;48.812;11.762;2023-06-14T05:54:11;3.60;;;3.08;;
22160;SDS011;49035;48.812;11.762;2023-06-14T05:56:37;5.47;;;3.33;;
22160;SDS011;49035;48.812;11.762;2023-06-14T05:59:02;5.15;;;3.30;;
22160;SDS011;49035;48.812;11.762;2023-06-14T06:01:28;9.40;;;3.13;;
22160;SDS011;49035;48.812;11.762;2023-06-14T06:03:53;6.80;;;3.42;;
22160;SDS011;49035;48.812;11.762;2023-06-14T06:06:19;5.72;;;3.13;;
22160;SDS011;49035;48.812;11.762;2023-06-14T06:08:45;3.47;;;2.92;;
22160;SDS011;49035;48.812;11.762;2023-06-14T06:11:11;8.00;;;3.15;;
22160;SDS011;49035;48.812;11.762;2023-06-14T06:13:38;5.53;;;3.30;;
22160;SDS011;49035;48.812;11.762;2023-06-14T06:16:04;5.03;;;2.70;;
22160;SDS011;49035;48.812;11.762;2023-06-14T06:18:29;4.63;;;3.38;;
22160;SDS011;49035;48.812;11.762;2023-06-14T06:20:55;3.28;;;2.83;;
22160;SDS011;49035;48.812;11.762;2023-06-14T06:23:21;6.93;;;3.05;;
22160;SDS011;49035;48.812;11.762;2023-06-14T06:25:46;3.30;;;2.80;;
22160;SDS011;49035;48.812;11.762;2023-06-14T06:28:12;3.88;;;2.65;;
22160;SDS011;49035;48.812;11.762;2023-06-14T06:30:38;4.90;;;2.83;;
22160;SDS011;49035;48.812;11.762;2023-06-14T06:33:03;5.00;;;2.90;;
22160;SDS011;49035;48.812;11.762;2023-06-14T06:35:29;10.30;;;3.53;;
22160;SDS011;49035;48.812;11.762;2023-06-14T06:37:55;4.03;;;3.00;;
22160;SDS011;49035;48.812;11.762;2023-06-14T06:40:21;4.55;;;3.33;;
22160;SDS011;49035;48.812;11.762;2023-06-14T06:42:47;5.57;;;3.15;;
22160;SDS011;49035;48.812;11.762;2023-06-14T06:45:13;10.20;;;3.33;;
22160;SDS011;49035;48.812;11.762;2023-06-14T06:47:38;5.75;;;3.17;;
22160;SDS011;49035;48.812;11.762;2023-06-14T06:50:04;6.78;;;3.53;;
22160;SDS011;49035;48.812;11.762;2023-06-14T06:52:31;5.60;;;3.15;;
22160;SDS011;49035;48.812;11.762;2023-06-14T06:54:57;9.88;;;3.40;;
22160;SDS011;49035;48.812;11.762;2023-06-14T06:57:22;3.78;;;2.95;;
22160;SDS011;49035;48.812;11.762;2023-06-14T06:59:48;6.20;;;3.45;;
22160;SDS011;49035;48.812;11.762;2023-06-14T07:02:14;4.50;;;2.95;;
22160;SDS011;49035;48.812;11.762;2023-06-14T07:04:40;8.07;;;3.30;;
22160;SDS011;49035;48.812;11.762;2023-06-14T07:07:06;8.98;;;3.47;;
22160;SDS011;49035;48.812;11.762;2023-06-14T07:09:34;4.25;;;3.50;;
22160;SDS011;49035;48.812;11.762;2023-06-14T07:11:59;5.82;;;3.58;;
22160;SDS011;49035;48.812;11.762;2023-06-14T07:14:25;7.18;;;3.22;;
22160;SDS011;49035;48.812;11.762;2023-06-14T07:16:50;7.20;;;3.00;;
22160;SDS011;49035;48.812;11.762;2023-06-14T07:19:16;7.10;;;3.53;;
22160;SDS011;49035;48.812;11.762;2023-06-14T07:21:42;12.52;;;3.33;;
22160;SDS011;49035;48.812;11.762;2023-06-14T07:24:08;3.90;;;3.42;;
22160;SDS011;49035;48.812;11.762;2023-06-14T07:26:36;6.43;;;3.13;;
22160;SDS011;49035;48.812;11.762;2023-06-14T07:29:02;7.15;;;3.75;;
22160;SDS011;49035;48.812;11.762;2023-06-14T07:31:28;4.72;;;3.28;;
22160;SDS011;49035;48.812;11.762;2023-06-14T07:33:53;5.97;;;3.22;;
22160;SDS011;49035;48.812;11.762;2023-06-14T07:36:19;5.38;;;3.47;;
22160;SDS011;49035;48.812;11.762;2023-06-14T07:38:45;6.72;;;3.05;;
22160;SDS011;49035;48.812;11.762;2023-06-14T07:41:11;4.28;;;3.30;;
22160;SDS011;49035;48.812;11.762;2023-06-14T07:43:37;4.15;;;3.20;;
22160;SDS011;49035;48.812;11.762;2023-06-14T07:46:02;4.68;;;2.85;;
22160;SDS011;49035;48.812;11.762;2023-06-14T07:48:30;5.13;;;3.00;;
22160;SDS011;49035;48.812;11.762;2023-06-14T07:50:55;7.28;;;3.38;;
22160;SDS011;49035;48.812;11.762;2023-06-14T07:53:21;5.40;;;3.00;;
22160;SDS011;49035;48.812;11.762;2023-06-14T07:55:46;4.53;;;3.15;;
22160;SDS011;49035;48.812;11.762;2023-06-14T07:58:13;4.70;;;2.97;;
22160;SDS011;49035;48.812;11.762;2023-06-14T08:00:39;4.05;;;3.08;;
22160;SDS011;49035;48.812;11.762;2023-06-14T08:03:04;3.55;;;3.00;;
22160;SDS011;49035;48.812;11.762;2023-06-14T08:05:30;4.78;;;3.70;;
22160;SDS011;49035;48.812;11.762;2023-06-14T08:07:56;6.15;;;3.13;;
22160;SDS011;49035;48.812;11.762;2023-06-14T08:10:22;5.97;;;2.92;;
22160;SDS011;49035;48.812;11.762;2023-06-14T08:12:47;4.68;;;3.40;;
22160;SDS011;49035;48.812;11.762;2023-06-14T08:15:15;3.60;;;2.78;;
22160;SDS011;49035;48.812;11.762;2023-06-14T08:17:42;7.97;;;3.05;;
22160;SDS011;49035;48.812;11.762;2023-06-14T08:20:08;4.07;;;2.80;;
22160;SDS011;49035;48.812;11.762;2023-06-14T08:22:35;3.40;;;3.10;;
22160;SDS011;49035;48.812;11.762;2023-06-14T08:25:02;3.67;;;3.20;;
22160;SDS011;49035;48.812;11.762;2023-06-14T08:27:28;5.57;;;2.83;;
22160;SDS011;49035;48.812;11.762;2023-06-14T08:29:54;3.90;;;2.67;;
22160;SDS011;49035;48.812;11.762;2023-06-14T08:32:21;4.18;;;3.00;;
22160;SDS011;49035;48.812;11.762;2023-06-14T08:34:46;3.95;;;2.63;;
22160;SDS011;49035;48.812;11.762;2023-06-14T08:37:12;4.63;;;2.85;;
22160;SDS011;49035;48.812;11.762;2023-06-14T08:39:38;5.70;;;2.70;;
22160;SDS011;49035;48.812;11.762;2023-06-14T08:42:04;4.43;;;3.00;;
22160;SDS011;49035;48.812;11.762;2023-06-14T08:44:32;4.03;;;2.60;;
22160;SDS011;49035;48.812;11.762;2023-06-14T08:46:59;5.10;;;3.22;;
22160;SDS011;49035;48.812;11.762;2023-06-14T08:49:25;4.07;;;2.97;;
22160;SDS011;49035;48.812;11.762;2023-06-14T08:51:58;4.25;;;3.10;;
22160;SDS011;49035;48.812;11.762;2023-06-14T08:54:26;5.47;;;2.90;;
22160;SDS011;49035;48.812;11.762;2023-06-14T08:56:54;3.75;;;2.78;;
22160;SDS011;49035;48.812;11.762;2023-06-14T08:59:24;4.55;;;2.85;;
22160;SDS011;49035;48.812;11.762;2023-06-14T09:01:53;4.68;;;2.65;;
22160;SDS011;49035;48.812;11.762;2023-06-14T09:04:22;4.75;;;2.80;;
22160;SDS011;49035;48.812;11.762;2023-06-14T09:06:49;7.32;;;2.90;;
22160;SDS011;49035;48.812;11.762;2023-06-14T09:09:18;3.78;;;2.78;;
22160;SDS011;49035;48.812;11.762;2023-06-14T09:11:45;3.75;;;2.60;;
22160;SDS011;49035;48.812;11.762;2023-06-14T09:14:11;6.40;;;3.50;;
22160;SDS011;49035;48.812;11.762;2023-06-14T09:16:36;4.85;;;2.95;;
22160;SDS011;49035;48.812;11.762;2023-06-14T09:19:02;2.88;;;2.58;;
22160;SDS011;49035;48.812;11.762;2023-06-14T09:21:28;6.63;;;2.90;;
22160;SDS011;49035;48.812;11.762;2023-06-14T09:24:01;5.13;;;2.97;;
22160;SDS011;49035;48.812;11.762;2023-06-14T09:26:27;3.42;;;2.80;;
22160;SDS011;49035;48.812;11.762;2023-06-14T09:28:53;4.70;;;2.92;;
22160;SDS011;49035;48.812;11.762;2023-06-14T09:31:20;2.78;;;2.53;;
22160;SDS011;49035;48.812;11.762;2023-06-14T09:33:47;5.57;;;2.50;;
22160;SDS011;49035;48.812;11.762;2023-06-14T09:36:15;4.40;;;2.88;;
22160;SDS011;49035;48.812;11.762;2023-06-14T09:41:32;3.08;;;2.75;;
22160;SDS011;49035;48.812;11.762;2023-06-14T09:43:59;5.40;;;2.63;;
22160;SDS011;49035;48.812;11.762;2023-06-14T09:46:27;6.80;;;2.95;;
22160;SDS011;49035;48.812;11.762;2023-06-14T09:48:54;4.68;;;2.67;;
22160;SDS011;49035;48.812;11.762;2023-06-14T09:51:22;4.25;;;2.53;;
22160;SDS011;49035;48.812;11.762;2023-06-14T09:53:48;5.88;;;2.50;;
22160;SDS011;49035;48.812;11.762;2023-06-14T09:56:26;3.50;;;2.67;;
22160;SDS011;49035;48.812;11.762;2023-06-14T09:58:55;4.68;;;2.80;;
22160;SDS011;49035;48.812;11.762;2023-06-14T10:01:22;3.60;;;2.67;;
22160;SDS011;49035;48.812;11.762;2023-06-14T10:03:55;3.72;;;2.50;;
22160;SDS011;49035;48.812;11.762;2023-06-14T10:06:27;3.00;;;2.70;;
22160;SDS011;49035;48.812;11.762;2023-06-14T10:08:56;4.75;;;2.58;;
22160;SDS011;49035;48.812;11.762;2023-06-14T10:11:24;5.45;;;2.60;;
22160;SDS011;49035;48.812;11.762;2023-06-14T10:13:51;4.30;;;2.78;;
22160;SDS011;49035;48.812;11.762;2023-06-14T10:16:28;3.38;;;2.58;;
22160;SDS011;49035;48.812;11.762;2023-06-14T10:24:24;6.13;;;2.63;;
22160;SDS011;49035;48.812;11.762;2023-06-14T10:26:58;3.90;;;2.80;;
22160;SDS011;49035;48.812;11.762;2023-06-14T10:29:26;3.40;;;2.70;;
22160;SDS011;49035;48.812;11.762;2023-06-14T10:31:57;5.75;;;2.95;;
22160;SDS011;49035;48.812;11.762;2023-06-14T10:34:27;2.65;;;2.35;;
22160;SDS011;49035;48.812;11.762;2023-06-14T10:39:41;3.72;;;2.58;;
22160;SDS011;49035;48.812;11.762;2023-06-14T10:42:09;5.07;;;2.80;;
22160;SDS011;49035;48.812;11.762;2023-06-14T10:44:54;4.78;;;2.63;;
22160;SDS011;49035;48.812;11.762;2023-06-14T10:47:33;3.75;;;2.70;;
22160;SDS011;49035;48.812;11.762;2023-06-14T10:50:06;8.07;;;2.63;;
22160;SDS011;49035;48.812;11.762;2023-06-14T10:52:34;4.68;;;2.92;;
22160;SDS011;49035;48.812;11.762;2023-06-14T10:55:16;3.53;;;2.90;;
22160;SDS011;49035;48.812;11.762;2023-06-14T10:57:44;2.70;;;2.30;;
22160;SDS011;49035;48.812;11.762;2023-06-14T11:00:11;2.92;;;2.65;;
22160;SDS011;49035;48.812;11.762;2023-06-14T11:05:31;4.53;;;3.15;;
22160;SDS011;49035;48.812;11.762;2023-06-14T11:08:33;5.68;;;3.40;;
22160;SDS011;49035;48.812;11.762;2023-06-14T11:11:05;5.97;;;2.60;;
22160;SDS011;49035;48.812;11.762;2023-06-14T11:13:32;6.32;;;2.78;;
22160;SDS011;49035;48.812;11.762;2023-06-14T11:15:58;6.47;;;3.17;;
22160;SDS011;49035;48.812;11.762;2023-06-14T11:18:24;5.97;;;3.60;;
22160;SDS011;49035;48.812;11.762;2023-06-14T11:20:52;4.35;;;2.92;;
22160;SDS011;49035;48.812;11.762;2023-06-14T11:23:18;4.95;;;3.03;;
22160;SDS011;49035;48.812;11.762;2023-06-14T11:25:43;3.15;;;2.67;;
22160;SDS011;49035;48.812;11.762;2023-06-14T11:28:14;3.53;;;3.10;;
22160;SDS011;49035;48.812;11.762;2023-06-14T11:30:39;4.40;;;2.72;;
22160;SDS011;49035;48.812;11.762;2023-06-14T11:33:09;5.72;;;2.55;;
22160;SDS011;49035;48.812;11.762;2023-06-14T11:35:35;5.32;;;2.72;;
22160;SDS011;49035;48.812;11.762;2023-06-14T11:38:01;4.30;;;3.15;;
22160;SDS011;49035;48.812;11.762;2023-06-14T11:40:27;2.88;;;2.58;;
22160;SDS011;49035;48.812;11.762;2023-06-14T11:42:59;7.35;;;3.08;;
22160;SDS011;49035;48.812;11.762;2023-06-14T11:45:25;3.20;;;2.90;;
22160;SDS011;49035;48.812;11.762;2023-06-14T11:47:53;3.40;;;2.65;;
22160;SDS011;49035;48.812;11.762;2023-06-14T11:50:21;4.75;;;2.60;;
22160;SDS011;49035;48.812;11.762;2023-06-14T11:52:56;5.82;;;2.85;;
22160;SDS011;49035;48.812;11.762;2023-06-14T11:55:25;2.72;;;2.50;;
22160;SDS011;49035;48.812;11.762;2023-06-14T11:57:50;5.03;;;2.47;;
22160;SDS011;49035;48.812;11.762;2023-06-14T12:00:18;5.07;;;2.67;;
22160;SDS011;49035;48.812;11.762;2023-06-14T12:02:53;3.90;;;2.90;;
22160;SDS011;49035;48.812;11.762;2023-06-14T12:05:22;5.93;;;2.92;;
22160;SDS011;49035;48.812;11.762;2023-06-14T12:07:49;6.72;;;3.42;;
22160;SDS011;49035;48.812;11.762;2023-06-14T12:10:15;5.85;;;2.60;;
22160;SDS011;49035;48.812;11.762;2023-06-14T12:12:42;3.00;;;2.53;;
22160;SDS011;49035;48.812;11.762;2023-06-14T12:15:08;3.03;;;2.72;;
22160;SDS011;49035;48.812;11.762;2023-06-14T12:17:36;3.70;;;2.53;;
22160;SDS011;49035;48.812;11.762;2023-06-14T12:20:06;2.80;;;2.50;;
22160;SDS011;49035;48.812;11.762;2023-06-14T12:22:36;6.68;;;3.05;;
22160;SDS011;49035;48.812;11.762;2023-06-14T12:25:03;3.92;;;2.75;;
22160;SDS011;49035;48.812;11.762;2023-06-14T12:27:29;4.30;;;3.33;;
22160;SDS011;49035;48.812;11.762;2023-06-14T12:29:59;5.32;;;3.22;;
22160;SDS011;49035;48.812;11.762;2023-06-14T12:32:26;4.97;;;3.08;;
22160;SDS011;49035;48.812;11.762;2023-06-14T12:34:51;7.82;;;2.90;;
22160;SDS011;49035;48.812;11.762;2023-06-14T12:37:17;7.10;;;3.22;;
22160;SDS011;49035;48.812;11.762;2023-06-14T12:39:43;6.20;;;3.38;;
22160;SDS011;49035;48.812;11.762;2023-06-14T12:42:09;6.53;;;3.20;;
22160;SDS011;49035;48.812;11.762;2023-06-14T12:44:34;3.15;;;2.72;;
22160;SDS011;49035;48.812;11.762;2023-06-14T12:47:05;13.52;;;3.85;;
22160;SDS011;49035;48.812;11.762;2023-06-14T12:49:31;7.80;;;3.28;;
22160;SDS011;49035;48.812;11.762;2023-06-14T12:51:57;4.82;;;3.00;;
22160;SDS011;49035;48.812;11.762;2023-06-14T12:54:22;10.68;;;3.47;;
22160;SDS011;49035;48.812;11.762;2023-06-14T12:56:50;5.50;;;2.95;;
22160;SDS011;49035;48.812;11.762;2023-06-14T12:59:16;4.88;;;3.08;;
22160;SDS011;49035;48.812;11.762;2023-06-14T13:01:43;5.32;;;2.78;;
22160;SDS011;49035;48.812;11.762;2023-06-14T13:04:09;5.68;;;3.10;;
22160;SDS011;49035;48.812;11.762;2023-06-14T13:06:35;3.92;;;2.78;;
22160;SDS011;49035;48.812;11.762;2023-06-14T13:09:01;7.10;;;2.75;;
22160;SDS011;49035;48.812;11.762;2023-06-14T13:11:28;7.60;;;3.05;;
22160;SDS011;49035;48.812;11.762;2023-06-14T13:13:55;3.72;;;2.90;;
22160;SDS011;49035;48.812;11.762;2023-06-14T13:16:20;6.45;;;3.05;;
22160;SDS011;49035;48.812;11.762;2023-06-14T13:18:46;8.68;;;2.95;;
22160;SDS011;49035;48.812;11.762;2023-06-14T13:21:12;4.20;;;2.88;;
22160;SDS011;49035;48.812;11.762;2023-06-14T13:23:37;4.30;;;2.70;;
22160;SDS011;49035;48.812;11.762;2023-06-14T13:26:03;7.35;;;3.20;;
22160;SDS011;49035;48.812;11.762;2023-06-14T13:28:28;6.35;;;3.47;;
22160;SDS011;49035;48.812;11.762;2023-06-14T13:30:55;3.13;;;2.83;;
22160;SDS011;49035;48.812;11.762;2023-06-14T13:33:21;3.40;;;3.10;;
22160;SDS011;49035;48.812;11.762;2023-06-14T13:35:46;5.18;;;3.15;;
22160;SDS011;49035;48.812;11.762;2023-06-14T13:38:13;4.95;;;3.00;;
22160;SDS011;49035;48.812;11.762;2023-06-14T13:40:40;8.60;;;3.10;;
22160;SDS011;49035;48.812;11.762;2023-06-14T13:43:06;4.53;;;2.75;;
22160;SDS011;49035;48.812;11.762;2023-06-14T13:45:31;6.95;;;3.33;;
22160;SDS011;49035;48.812;11.762;2023-06-14T13:47:57;4.22;;;2.70;;
22160;SDS011;49035;48.812;11.762;2023-06-14T13:50:23;5.55;;;3.42;;
22160;SDS011;49035;48.812;11.762;2023-06-14T13:52:48;4.88;;;3.58;;
22160;SDS011;49035;48.812;11.762;2023-06-14T13:55:14;4.65;;;3.03;;
22160;SDS011;49035;48.812;11.762;2023-06-14T13:57:39;5.22;;;3.03;;
22160;SDS011;49035;48.812;11.762;2023-06-14T14:00:05;3.45;;;3.03;;
22160;SDS011;49035;48.812;11.762;2023-06-14T14:02:31;3.97;;;3.58;;
22160;SDS011;49035;48.812;11.762;2023-06-14T14:04:57;5.28;;;3.72;;
22160;SDS011;49035;48.812;11.762;2023-06-14T14:07:22;4.78;;;3.30;;
22160;SDS011;49035;48.812;11.762;2023-06-14T14:09:48;4.13;;;3.13;;
22160;SDS011;49035;48.812;11.762;2023-06-14T14:12:14;5.38;;;3.58;;
22160;SDS011;49035;48.812;11.762;2023-06-14T14:14:39;4.50;;;3.28;;
22160;SDS011;49035;48.812;11.762;2023-06-14T14:17:05;4.00;;;3.50;;
22160;SDS011;49035;48.812;11.762;2023-06-14T14:19:31;6.70;;;3.85;;
22160;SDS011;49035;48.812;11.762;2023-06-14T14:21:57;4.22;;;2.95;;
22160;SDS011;49035;48.812;11.762;2023-06-14T14:24:23;5.90;;;3.50;;
22160;SDS011;49035;48.812;11.762;2023-06-14T14:26:48;3.47;;;3.17;;
22160;SDS011;49035;48.812;11.762;2023-06-14T14:29:15;3.97;;;3.15;;
22160;SDS011;49035;48.812;11.762;2023-06-14T14:31:41;6.60;;;3.88;;
22160;SDS011;49035;48.812;11.762;2023-06-14T14:34:07;6.90;;;3.25;;
22160;SDS011;49035;48.812;11.762;2023-06-14T14:36:33;4.45;;;3.22;;
22160;SDS011;49035;48.812;11.762;2023-06-14T14:39:01;4.10;;;3.70;;
22160;SDS011;49035;48.812;11.762;2023-06-14T14:41:27;9.18;;;3.80;;
22160;SDS011;49035;48.812;11.762;2023-06-14T14:43:52;8.05;;;3.38;;
22160;SDS011;49035;48.812;11.762;2023-06-14T14:46:18;3.45;;;3.15;;
22160;SDS011;49035;48.812;11.762;2023-06-14T14:48:44;6.72;;;3.70;;